KGAD

Northeast Alabama Regional Airport

Gadsden, Alabama, USA
METAR KGAD 231056Z AUTO 00000KT 10SM CLR 04/04 A3023 RMK AO2 SLP242 T00440044
Observed Flight Rules
Oct-23 @ 10:56 UTC (53 minutes ago) Visual Flight Rules
Visibility Clouds
10 miles
  • Clear skies
Temperatures Readings
Current 4°C / 39°F
Dewpoint 4°C / 39°F
Humidity 100%
Altimeter 30.23" Hg
Pressure 1024.2 hPa
Elevation 173
METAR KGAD 231056Z AUTO 00000KT 10SM CLR 04/04 A3023 RMK AO2 SLP242 T00440044
Observed Flight Rules
Oct-23 @ 10:56 UTC
(53 minutes ago)
VFR
Clouds
  • Clear skies
Temperature Dewpoint
4°C / 39°F 4°C / 39°F
Humidity Altimeter Pressure
100% 30.23" Hg 1024.2 hPa